• Join FlightAware (Why Join?)
  • Login
  • US Flag 
11:54AM EDT


 

Airport Tracker/Info


-or-


 

Live Flight TrackerFlight Track Log ✈ N441R ✈ 28-Jul-2013 ✈ KCLT - KBLF

Flight Track Log - Related Links

Times and Time Zones

All times are in EDT time to prevent confusion due to time zone crossing. See the N441R flight status page for this flight to view local times or setup timezone preferences in your user account.

Time Position Orientation Groundspeed Altitude Reporting Facility
EDT Latitude Longitude Course Direction KTS MPH feet Rate Location/Type
03:03PM 35.2017 -80.9556 258° West 146 168 1,500  Level Atlanta Center
03:05PM 35.1889 -81.0297 258° West 182 209 4,300 1,500 Climbing Atlanta Center
03:06PM 35.1886 -81.0958 270° West 191 220 5,100 1,080 Climbing Atlanta Center
03:07PM 35.1881 -81.1644 269° West 220 253 6,500 1,680 Climbing Atlanta Center
03:07PM 35.2056 -81.2019 300° West 207 238 7,900 1,860 Climbing Atlanta Center
03:08PM 35.2442 -81.2464 317° Northwest 212 244 9,700 1,800 Climbing Atlanta Center
03:09PM 35.3003 -81.2369 North 222 255 11,500 1,500 Climbing Atlanta Center
03:10PM 35.3650 -81.2322 North 270 311 12,800 900 Climbing Atlanta Center
03:11PM 35.4081 -81.2103 23° Northeast 277 319 13,000 300 Climbing Atlanta Center
03:12PM 35.5114 -81.1583 22° Northeast 328 377 13,400 600 Climbing Atlanta Center
03:13PM 35.5897 -81.1250 19° North 317 365 14,500 1,380 Climbing Atlanta Center
03:14PM 35.6606 -81.1197 North 276 318 16,200 1,500 Climbing Atlanta Center
03:15PM 35.7317 -81.1225 358° North 257 296 17,500 1,200 Climbing Atlanta Center
03:16PM 35.8006 -81.1250 358° North 251 289 18,700 720 Climbing Atlanta Center
03:17PM 35.8778 -81.1300 357° North 262 302 19,000 120 Climbing Atlanta Center
03:18PM 35.9633 -81.1319 359° North 289 333 19,000  Level Atlanta Center
03:19PM 36.0447 -81.1367 357° North 300 345 19,000  Level Atlanta Center
03:20PM 36.1306 -81.1414 357° North 300 345 19,000  Level Atlanta Center
03:21PM 36.2203 -81.1486 356° North 300 345 19,000  Level Atlanta Center
03:22PM 36.3039 -81.1533 357° North 295 339 19,000  Level Atlanta Center
03:23PM 36.3872 -81.1556 359° North 295 339 19,000  Level Atlanta Center
03:24PM 36.4731 -81.1628 356° North 295 339 19,000  Level Atlanta Center
03:25PM 36.5564 -81.1647 359° North 295 339 19,000 -60 Level Atlanta Center
03:26PM 36.6378 -81.1697 357° North 290 334 18,900 -840 Descending Atlanta Center
03:27PM 36.7278 -81.1767 356° North 298 343 17,400 -1,620 Descending Atlanta Center
03:28PM 36.8153 -81.1789 359° North 312 359 15,700 -1,860 Descending Atlanta Center
03:31PM 37.0125 -81.1919 357° North 299 344 11,200 -1,980 Descending Indianapolis Center
03:32PM 37.0986 -81.2008 355° North 285 328 9,100 -2,040 Descending Indianapolis Center
03:34PM 37.2178 -81.2000 North  Level FlightAware Approximate
03:41PM 37.2833 -81.2000 North  Level FlightAware Approximate
03:42PM 37.2958 -81.2077 North  Level Estimated
03:43PM 37.2958 -81.2077 North  Level Estimated
03:44PM 37.2958 -81.2077 North  Level Estimated
03:45PM 37.2958 -81.2077 North  Level Estimated